Terminal Aerodrome Forecast
Issued by NWS

Current Version | Previous Version | Text Only | Print | Product List | Glossary On
Versions: 1 2 3 4 5 6 7 8 9 10 11 12 13 14 15 16 17 18 19 20 21
000
FTUS43 KDLH 062300 RRA
TAFHYR
TAF
KHYR 062358Z 0700/0724 13011KT P6SM BKN100
     FM070100 13009KT 6SM -SHRA BKN035 WS015/18040KT
     FM070300 14010KT 5SM -RA BR OVC008 WS015/18040KT
     FM070700 16009KT P6SM VCSH SCT008 BKN035
     FM071700 17012KT 5SM -SHRA BR OVC012
     FM072200 19008KT P6SM VCSH SCT015 BKN040=

USA.gov is the U.S. government's official web portal to all federal, state and local government web resources and services.